Time;durP1;ratioP1;P1;durP2;ratioP2;P2;SDS_P1;SDS_P2;PMS_P1;PMS_P2;Temp;Humidity;BMP_temperature;BMP_pressure;BME280_temperature;BME280_humidity;BME280_pressure;Samples;Min_cycle;Max_cycle;Signal;HPM_P1;HPM_P2
2023/09/04 03:59:43;;;;;;;6.05;5.30;;;;;;;17.34;89.81;101233.13;5606669;31;78881;-56
2023/09/04 04:02:48;;;;;;;7.32;5.45;;;;;;;17.34;89.81;101233.13;5599180;31;33492;-55
2023/09/04 04:05:51;;;;;;;6.50;5.53;;;;;;;16.83;99.87;101229.56;5603888;31;33624;-55
2023/09/04 04:08:56;;;;;;;6.30;4.97;;;;;;;16.85;97.28;101232.78;5603656;31;33173;-57
2023/09/04 04:11:59;;;;;;;7.03;4.70;;;;;;;16.92;83.28;101232.38;5590717;31;34241;-56
2023/09/04 04:15:06;;;;;;;7.68;4.70;;;;;;;16.90;85.25;101231.88;5583745;32;34308;-55
2023/09/04 04:18:09;;;;;;;9.10;5.30;;;;;;;17.04;81.16;101235.38;5583827;31;34383;-56
2023/09/04 04:21:12;;;;;;;5.60;4.25;;;;;;;16.88;87.16;101234.06;5589711;31;34183;-56
2023/09/04 04:24:14;;;;;;;5.12;4.20;;;;;;;16.92;81.62;101235.09;5603193;31;33617;-55
2023/09/04 04:27:17;;;;;;;7.07;4.85;;;;;;;16.99;80.78;101232.78;5603163;31;33584;-55
2023/09/04 04:30:20;;;;;;;9.07;4.72;;;;;;;16.85;90.52;101237.37;5602953;31;34286;-55
2023/09/04 04:33:22;;;;;;;7.80;4.78;;;;;;;16.88;82.51;101240.28;5603365;31;34369;-55
2023/09/04 04:36:25;;;;;;;8.80;5.40;;;;;;;16.99;82.66;101243.63;5617759;31;33572;-56
2023/09/04 04:39:27;;;;;;;8.18;5.45;;;;;;;17.07;89.95;101248.31;5623140;31;34306;-56
2023/09/04 04:42:31;;;;;;;5.72;4.82;;;;;;;17.25;86.14;101267.44;5621743;31;35210;-56
2023/09/04 04:45:34;;;;;;;8.57;5.28;;;;;;;17.20;80.13;101264.84;5622683;31;32091;-56
2023/09/04 04:48:37;;;;;;;8.82;5.00;;;;;;;17.23;86.77;101269.69;5620422;31;33566;-56
2023/09/04 04:51:39;;;;;;;8.40;4.70;;;;;;;17.26;80.08;101272.59;5603203;31;34404;-55
2023/09/04 04:54:42;;;;;;;5.93;4.75;;;;;;;17.30;79.54;101267.34;5602594;31;33599;-55
2023/09/04 04:57:45;;;;;;;7.90;4.85;;;;;;;17.25;79.27;101276.41;5602756;31;33595;-55
2023/09/04 05:00:48;;;;;;;6.93;4.55;;;;;;;17.26;80.11;101279.91;5601909;31;33231;-56
2023/09/04 05:03:51;;;;;;;7.60;4.97;;;;;;;17.29;85.25;101282.81;5620629;31;34480;-55
2023/09/04 05:06:53;;;;;;;6.87;5.07;;;;;;;17.35;78.90;101284.31;5617454;31;33418;-55
2023/09/04 05:09:56;;;;;;;6.30;4.97;;;;;;;17.28;80.44;101274.97;5609679;31;33592;-56
2023/09/04 05:12:59;;;;;;;8.57;4.93;;;;;;;17.26;92.28;101282.62;5588470;31;33702;-55
2023/09/04 05:16:05;;;;;;;6.78;4.90;;;;;;;17.33;83.02;101275.69;5589559;31;33757;-56
2023/09/04 05:19:08;;;;;;;7.28;4.62;;;;;;;17.44;97.21;101276.25;5586342;31;33411;-56
2023/09/04 05:22:11;;;;;;;10.63;5.40;;;;;;;17.47;85.61;101272.94;5589113;31;33656;-55
2023/09/04 05:25:14;;;;;;;12.30;5.57;;;;;;;17.52;82.44;101280.16;5589570;31;33896;-56
2023/09/04 05:28:16;;;;;;;9.32;6.00;;;;;;;17.70;94.64;101281.91;5603847;31;33297;-56
2023/09/04 05:31:19;;;;;;;23.73;9.88;;;;;;;17.79;84.78;101282.81;5608912;31;34270;-56
2023/09/04 05:34:21;;;;;;;11.55;5.60;;;;;;;17.93;90.49;101287.41;5607704;31;34158;-56
2023/09/04 05:37:24;;;;;;;12.37;5.70;;;;;;;18.03;83.69;101292.59;5608456;31;33586;-55
2023/09/04 05:40:27;;;;;;;9.70;5.35;;;;;;;18.20;92.14;101295.41;5608966;31;33768;-55
2023/09/04 05:43:29;;;;;;;12.95;5.15;;;;;;;18.27;82.99;101301.19;5608762;31;33650;-56
2023/09/04 05:46:32;;;;;;;9.90;5.05;;;;;;;18.40;82.83;101304.97;5607528;31;33911;-56
2023/09/04 05:49:34;;;;;;;10.32;4.78;;;;;;;18.48;78.17;101300.72;5608915;31;34416;-56
2023/09/04 05:52:37;;;;;;;9.07;4.90;;;;;;;18.51;80.67;101297.38;5603311;31;33589;-56
2023/09/04 05:55:40;;;;;;;11.98;4.85;;;;;;;18.63;78.09;101302.22;5600108;31;34404;-55
2023/09/04 05:58:48;;;;;;;10.48;5.05;;;;;;;18.73;78.57;101297.34;5608426;31;33685;-56
2023/09/04 06:01:50;;;;;;;8.30;4.82;;;;;;;18.88;82.57;101298.06;5602409;31;33760;-56
2023/09/04 06:04:54;;;;;;;7.20;4.80;;;;;;;18.87;81.12;101296.44;5588425;31;33262;-55
2023/09/04 06:07:58;;;;;;;6.35;5.62;;;;;;;18.94;73.52;101299.50;5589221;31;34425;-57
2023/09/04 06:11:02;;;;;;;5.90;4.55;;;;;;;19.04;74.59;101295.69;5589199;31;33684;-56
2023/09/04 06:14:05;;;;;;;8.60;5.55;;;;;;;19.15;75.47;101288.88;5588755;31;33667;-56
2023/09/04 06:17:08;;;;;;;20.20;4.90;;;;;;;19.30;90.06;101296.56;5588707;31;33138;-56
2023/09/04 06:20:11;;;;;;;13.00;4.25;;;;;;;19.45;76.22;101296.12;5588271;31;33610;-55
2023/09/04 06:23:16;;;;;;;6.72;4.30;;;;;;;19.62;73.64;101299.97;5588037;31;33755;-56
2023/09/04 06:26:19;;;;;;;8.50;4.05;;;;;;;19.81;67.48;101292.34;5588974;31;33822;-56
2023/09/04 06:29:22;;;;;;;13.45;4.15;;;;;;;19.92;70.96;101301.78;5580817;31;34329;-55
2023/09/04 06:32:24;;;;;;;5.07;3.55;;;;;;;19.98;68.47;101304.34;5577845;31;33725;-56
2023/09/04 06:35:28;;;;;;;7.28;3.92;;;;;;;20.08;65.95;101296.66;5581605;31;33455;-55
2023/09/04 06:38:30;;;;;;;6.53;4.57;;;;;;;20.21;64.43;101305.75;5584139;31;32968;-56
2023/09/04 06:41:33;;;;;;;6.03;3.78;;;;;;;20.31;73.41;101302.69;5583571;31;33894;-56
2023/09/04 06:44:35;;;;;;;7.70;3.72;;;;;;;20.34;62.70;101315.66;5586763;31;33623;-56
2023/09/04 06:47:38;;;;;;;5.22;3.62;;;;;;;20.41;61.59;101324.16;5588568;31;33578;-57
2023/09/04 06:50:40;;;;;;;6.20;3.62;;;;;;;20.60;69.49;101329.25;5586100;31;33582;-56
2023/09/04 06:53:44;;;;;;;8.27;3.62;;;;;;;20.59;58.37;101324.13;5576655;31;33653;-56
2023/09/04 06:56:46;;;;;;;5.30;3.17;;;;;;;20.71;59.35;101328.91;5570685;31;33272;-56
2023/09/04 06:59:49;;;;;;;5.12;3.35;;;;;;;20.68;58.92;101322.19;5587287;31;33653;-56
2023/09/04 07:02:51;;;;;;;155.15;17.45;;;;;;;20.77;68.32;101317.50;5585436;31;33243;-56
2023/09/04 07:05:54;;;;;;;22.35;5.35;;;;;;;20.72;60.46;101314.94;5589478;31;33523;-56
2023/09/04 07:08:56;;;;;;;6.53;3.62;;;;;;;20.76;62.56;101317.81;5579444;31;33277;-57
2023/09/04 07:11:59;;;;;;;8.15;3.50;;;;;;;20.73;59.00;101323.91;5572035;31;33903;-56
2023/09/04 07:15:02;;;;;;;5.70;3.53;;;;;;;20.95;65.05;101333.78;5581281;31;33203;-56
2023/09/04 07:18:04;;;;;;;4.12;3.40;;;;;;;20.77;62.90;101346.69;5570889;31;34371;-57
2023/09/04 07:21:06;;;;;;;8.05;3.70;;;;;;;20.90;67.26;101348.41;5577421;31;33667;-56
2023/09/04 07:24:09;;;;;;;6.68;3.80;;;;;;;20.95;65.33;101345.47;5573479;31;34228;-56
2023/09/04 07:27:11;;;;;;;6.07;3.62;;;;;;;20.84;61.42;101346.97;5572605;31;34356;-56
2023/09/04 07:30:15;;;;;;;5.00;3.70;;;;;;;20.91;63.50;101344.53;5582705;31;34235;-56
2023/09/04 07:33:17;;;;;;;5.25;3.50;;;;;;;21.04;62.24;101353.62;5578775;31;34315;-56
2023/09/04 07:36:19;;;;;;;6.93;3.60;;;;;;;21.04;65.68;101356.38;5573989;31;33680;-56
2023/09/04 07:39:22;;;;;;;5.43;3.80;;;;;;;21.17;70.27;101357.28;5588089;31;34201;-56
2023/09/04 07:42:25;;;;;;;6.35;3.60;;;;;;;21.31;67.94;101339.53;5584894;31;33713;-57
2023/09/04 07:45:27;;;;;;;5.37;4.10;;;;;;;21.19;61.94;101341.38;5576187;31;33635;-55
2023/09/04 07:48:31;;;;;;;5.12;3.50;;;;;;;21.19;61.25;101338.63;5578600;31;33512;-56
2023/09/04 07:51:33;;;;;;;5.28;3.60;;;;;;;21.08;58.63;101336.28;5598442;31;33759;-56
2023/09/04 07:54:37;;;;;;;4.60;3.30;;;;;;;21.26;68.24;101341.69;5586494;31;33628;-57
2023/09/04 07:57:40;;;;;;;5.40;3.28;;;;;;;21.31;61.55;101333.28;5580792;31;34217;-57
2023/09/04 08:00:48;;;;;;;4.82;3.00;;;;;;;21.35;57.29;101331.53;5562816;31;33584;-57
2023/09/04 08:03:50;;;;;;;6.32;3.10;;;;;;;21.47;61.38;101330.81;5577327;31;33334;-57
2023/09/04 08:06:55;;;;;;;4.90;3.10;;;;;;;21.52;58.29;101330.62;5589920;31;33247;-56
2023/09/04 08:09:59;;;;;;;4.20;2.70;;;;;;;21.53;54.98;101335.75;5578838;31;33311;-56
2023/09/04 08:13:01;;;;;;;5.07;2.80;;;;;;;21.71;57.00;101339.16;5596976;31;33852;-57
2023/09/04 08:16:05;;;;;;;4.20;3.12;;;;;;;21.83;57.84;101341.16;5604591;31;34319;-56
2023/09/04 08:19:07;;;;;;;4.65;2.83;;;;;;;21.79;56.40;101340.25;5573830;31;33710;-56
2023/09/04 08:22:11;;;;;;;7.70;2.78;;;;;;;21.89;59.00;101350.75;5567433;32;33396;-57
2023/09/04 08:25:13;;;;;;;5.00;3.03;;;;;;;21.88;50.02;101338.22;5595219;31;33585;-58
2023/09/04 08:28:15;;;;;;;4.78;3.00;;;;;;;21.89;53.13;101336.31;5578905;31;33680;-57
2023/09/04 08:31:17;;;;;;;5.75;2.95;;;;;;;21.91;54.31;101339.50;5606904;31;33811;-57
2023/09/04 08:34:20;;;;;;;5.00;2.55;;;;;;;22.01;57.40;101341.81;5600695;31;33665;-56
2023/09/04 08:37:23;;;;;;;4.43;2.60;;;;;;;22.05;50.21;101338.09;5582386;31;34366;-56
2023/09/04 08:40:25;;;;;;;6.70;2.50;;;;;;;22.03;47.60;101334.09;5571894;31;33692;-58
2023/09/04 08:43:30;;;;;;;6.50;2.75;;;;;;;22.02;48.95;101336.03;5587080;31;33607;-56
2023/09/04 08:46:35;;;;;;;6.47;2.55;;;;;;;22.13;49.89;101339.16;5590097;31;33530;-57
2023/09/04 08:49:37;;;;;;;2.90;2.37;;;;;;;22.15;48.95;101336.94;5580680;31;34403;-57
2023/09/04 08:52:41;;;;;;;3.37;2.37;;;;;;;22.22;54.27;101336.38;5570003;31;33326;-57
2023/09/04 08:55:43;;;;;;;4.95;2.45;;;;;;;22.25;51.11;101343.88;5587287;31;34101;-57
2023/09/04 08:58:46;;;;;;;7.50;2.60;;;;;;;22.38;45.57;101334.59;5582399;31;33624;-56
2023/09/04 09:01:50;;;;;;;4.18;2.10;;;;;;;22.27;46.26;101326.03;5606821;31;33446;-57
2023/09/04 09:04:53;;;;;;;25.55;3.47;;;;;;;22.33;48.18;101337.53;5592523;31;35018;-58
2023/09/04 09:07:55;;;;;;;6.95;2.70;;;;;;;22.47;49.96;101338.03;5588952;31;34330;-57
2023/09/04 09:10:57;;;;;;;8.20;2.60;;;;;;;22.40;46.10;101328.81;5589074;31;33727;-56
2023/09/04 09:14:00;;;;;;;6.10;2.50;;;;;;;22.47;48.22;101335.31;5588761;31;34603;-57
2023/09/04 09:17:14;;;;;;;4.28;2.33;;;;;;;22.46;47.14;101330.19;5589040;31;34329;-57
2023/09/04 09:20:43;;;;;;;4.37;2.67;;;;;;;22.45;46.89;101345.78;5578531;31;34322;-57
2023/09/04 09:23:45;;;;;;;5.53;2.37;;;;;;;22.38;49.54;101328.31;5569909;31;34264;-57
2023/09/04 09:26:49;;;;;;;3.22;2.47;;;;;;;22.37;46.32;101322.06;5573607;31;33742;-57
2023/09/04 09:29:54;;;;;;;11.77;3.17;;;;;;;22.48;45.77;101315.06;5574804;31;33621;-56
2023/09/04 09:32:58;;;;;;;5.53;2.85;;;;;;;22.51;49.12;101321.75;5568893;32;33744;-56
2023/09/04 09:36:01;;;;;;;6.70;2.87;;;;;;;22.48;49.86;101325.16;5580901;31;33619;-57
2023/09/04 09:39:05;;;;;;;4.47;2.60;;;;;;;22.52;49.39;101321.44;5579944;31;33201;-58
2023/09/04 09:42:07;;;;;;;4.72;2.70;;;;;;;22.55;50.94;101311.78;5572702;31;34314;-56
2023/09/04 09:45:12;;;;;;;6.87;2.50;;;;;;;22.64;54.16;101317.12;5577560;31;34370;-58
2023/09/04 09:48:16;;;;;;;4.87;2.50;;;;;;;22.60;47.82;101316.22;5588704;31;33625;-57
2023/09/04 09:51:19;;;;;;;3.33;2.45;;;;;;;22.63;52.23;101315.53;5580363;31;33715;-58
2023/09/04 09:54:35;;;;;;;3.85;2.40;;;;;;;22.75;47.35;101327.28;5590743;31;34087;-57
2023/09/04 09:57:38;;;;;;;4.53;2.70;;;;;;;22.84;47.95;101323.62;5608311;31;33877;-57
2023/09/04 10:00:41;;;;;;;3.92;2.83;;;;;;;22.88;52.19;101322.63;5608603;31;33672;-57
2023/09/04 10:03:46;;;;;;;4.30;2.58;;;;;;;22.90;45.75;101319.56;5589688;31;33736;-56
2023/09/04 10:06:52;;;;;;;8.23;2.95;;;;;;;22.90;47.20;101317.59;5584603;31;33754;-57
2023/09/04 10:10:03;;;;;;;5.10;2.53;;;;;;;22.97;47.37;101306.12;5584118;31;34038;-58
2023/09/04 10:13:19;;;;;;;5.00;2.45;;;;;;;23.01;46.76;101306.25;5587791;31;31975;-58
2023/09/04 10:16:42;;;;;;;4.25;2.70;;;;;;;23.11;48.15;101314.81;5573119;31;33758;-57
2023/09/04 10:19:47;;;;;;;5.40;2.65;;;;;;;23.04;48.07;101308.31;5576324;31;34363;-57
2023/09/04 10:23:02;;;;;;;4.12;2.28;;;;;;;23.10;43.96;101315.94;5582524;31;34574;-57
2023/09/04 10:26:08;;;;;;;3.80;2.70;;;;;;;23.15;47.55;101307.50;5588229;31;33890;-58
2023/09/04 10:29:17;;;;;;;4.65;2.83;;;;;;;23.15;50.48;101306.72;5588618;31;34294;-55
2023/09/04 10:32:19;;;;;;;6.78;2.90;;;;;;;23.31;50.27;101307.63;5597281;31;33794;-56
2023/09/04 10:35:22;;;;;;;3.90;2.28;;;;;;;23.33;45.69;101308.06;5608641;31;34325;-58
2023/09/04 10:38:25;;;;;;;6.62;2.40;;;;;;;23.29;45.15;101300.88;5597414;31;34374;-57
2023/09/04 10:41:31;;;;;;;3.67;2.20;;;;;;;23.25;50.73;101294.50;5608414;31;33980;-57
2023/09/04 10:44:53;;;;;;;4.70;2.17;;;;;;;23.28;47.77;101300.09;5597421;31;33609;-57
2023/09/04 10:47:56;;;;;;;3.87;2.28;;;;;;;23.32;49.65;101297.47;5588798;31;34274;-57
2023/09/04 10:50:58;;;;;;;3.62;2.30;;;;;;;23.29;49.56;101301.69;5588516;31;33747;-57
2023/09/04 10:54:07;;;;;;;3.10;2.25;;;;;;;23.35;47.40;101294.03;5577472;31;33581;-58
2023/09/04 10:57:13;;;;;;;4.07;2.97;;;;;;;23.29;46.46;101307.16;5573668;31;34087;-57
2023/09/04 11:00:29;;;;;;;3.62;2.22;;;;;;;23.33;47.22;101299.06;5579069;31;34312;-58
2023/09/04 11:03:31;;;;;;;6.55;2.55;;;;;;;23.34;44.66;101297.91;5570658;31;33893;-57
2023/09/04 11:06:38;;;;;;;37.92;3.90;;;;;;;23.39;43.37;101293.00;5582884;31;33585;-57
2023/09/04 11:09:41;;;;;;;39.63;3.70;;;;;;;23.45;47.10;101294.34;5589712;31;33685;-57
2023/09/04 11:12:45;;;;;;;39.72;3.42;;;;;;;23.48;47.45;101289.31;5597233;31;34348;-58
2023/09/04 11:15:47;;;;;;;3.62;2.17;;;;;;;23.53;44.98;101291.81;5569441;31;33951;-57
2023/09/04 11:19:05;;;;;;;12.73;2.65;;;;;;;23.48;42.50;101290.13;5585036;31;33605;-56
2023/09/04 11:22:21;;;;;;;11.52;2.40;;;;;;;23.37;43.71;101278.84;5578657;31;33715;-56
2023/09/04 11:25:24;;;;;;;5.37;2.47;;;;;;;23.49;42.83;101280.00;5587276;31;34419;-57
2023/09/04 11:28:27;;;;;;;16.08;3.40;;;;;;;23.51;42.13;101289.44;5581683;31;33723;-57
2023/09/04 11:31:31;;;;;;;4.22;1.98;;;;;;;23.54;44.49;101280.56;5582293;31;34072;-56
2023/09/04 11:34:33;;;;;;;3.40;2.45;;;;;;;23.46;44.57;101278.72;5577192;31;33888;-57
2023/09/04 11:37:36;;;;;;;5.62;2.22;;;;;;;23.53;41.58;101281.69;5594168;31;34316;-57
2023/09/04 11:40:38;;;;;;;5.93;2.53;;;;;;;23.58;44.42;101283.38;5601250;31;34266;-57
2023/09/04 11:43:41;;;;;;;7.97;2.55;;;;;;;23.65;43.38;101291.81;5581889;31;33715;-56
2023/09/04 11:46:44;;;;;;;4.22;2.22;;;;;;;23.50;45.62;101276.09;5577184;31;33701;-58
2023/09/04 11:49:47;;;;;;;7.20;2.62;;;;;;;23.46;45.77;101281.47;5567904;31;33735;-57
2023/09/04 11:52:52;;;;;;;3.15;2.20;;;;;;;23.45;49.46;101280.69;5575583;31;35290;-57
2023/09/04 11:55:54;;;;;;;3.17;2.37;;;;;;;23.44;46.84;101268.16;5568059;32;34423;-57
2023/09/04 11:58:57;;;;;;;7.70;3.00;;;;;;;23.50;43.91;101271.41;5592574;31;33832;-57
2023/09/04 12:02:00;;;;;;;4.70;2.55;;;;;;;23.55;47.72;101278.59;5606894;31;34230;-57
2023/09/04 12:05:05;;;;;;;3.75;2.28;;;;;;;23.48;46.17;101276.47;5600967;31;33228;-56
2023/09/04 12:08:09;;;;;;;4.18;2.67;;;;;;;23.55;46.09;101270.41;5579702;31;33319;-57
2023/09/04 12:11:12;;;;;;;3.78;2.08;;;;;;;23.61;45.62;101269.00;5567723;32;33331;-57
2023/09/04 12:14:15;;;;;;;6.32;2.55;;;;;;;23.71;41.85;101259.53;5579303;31;33541;-57
2023/09/04 12:17:18;;;;;;;22.83;3.25;;;;;;;23.58;43.27;101265.03;5587300;31;33953;-57
2023/09/04 12:20:21;;;;;;;2.97;2.25;;;;;;;23.50;48.46;101254.22;5588454;31;33736;-57
2023/09/04 12:23:43;;;;;;;5.85;2.35;;;;;;;23.50;45.57;101249.53;5590185;31;33744;-57
2023/09/04 12:26:49;;;;;;;2.92;2.30;;;;;;;23.53;44.40;101243.34;5589728;31;33262;-57
2023/09/04 12:29:52;;;;;;;4.30;2.30;;;;;;;23.67;45.54;101245.69;5578920;31;32257;-57
2023/09/04 12:32:57;;;;;;;4.60;2.42;;;;;;;23.67;46.58;101235.56;5573470;31;33160;-57
2023/09/04 12:35:59;;;;;;;4.28;2.53;;;;;;;23.61;45.08;101233.44;5575973;31;34305;-58
2023/09/04 12:39:01;;;;;;;4.47;2.40;;;;;;;23.66;43.51;101233.97;5575739;31;33772;-58
2023/09/04 12:42:07;;;;;;;3.85;2.72;;;;;;;23.67;43.67;101237.50;5573993;31;33677;-57
2023/09/04 12:45:09;;;;;;;3.47;2.00;;;;;;;23.54;44.32;101235.94;5575459;31;33802;-56
2023/09/04 12:48:14;;;;;;;3.58;2.05;;;;;;;23.58;44.01;101231.38;5569943;32;33701;-57
2023/09/04 12:51:16;;;;;;;4.40;2.35;;;;;;;23.62;43.11;101232.28;5570523;31;33571;-57
2023/09/04 12:54:18;;;;;;;3.95;2.40;;;;;;;23.60;45.56;101223.59;5575680;31;33752;-56
2023/09/04 12:57:21;;;;;;;3.58;2.70;;;;;;;23.63;42.73;101222.91;5585867;31;33384;-57
2023/09/04 13:00:23;;;;;;;3.37;2.42;;;;;;;23.71;45.04;101224.75;5576275;31;33659;-58
2023/09/04 13:03:25;;;;;;;3.22;2.60;;;;;;;23.73;45.73;101216.19;5574388;31;33351;-57
2023/09/04 13:06:30;;;;;;;4.05;2.45;;;;;;;23.78;47.86;101221.41;5583262;31;33697;-57
2023/09/04 13:09:32;;;;;;;3.97;2.33;;;;;;;23.78;46.22;101226.87;5589326;31;33895;-58
2023/09/04 13:12:35;;;;;;;4.35;2.78;;;;;;;23.67;46.48;101218.31;5589522;31;33627;-58
2023/09/04 13:15:37;;;;;;;3.45;2.42;;;;;;;23.61;46.11;101219.75;5589736;31;33789;-57
2023/09/04 13:18:40;;;;;;;2.95;1.98;;;;;;;23.61;47.45;101214.28;5580853;31;33569;-58
2023/09/04 13:21:43;;;;;;;9.85;2.95;;;;;;;23.80;44.46;101203.47;5575913;31;33670;-58
2023/09/04 13:24:45;;;;;;;3.62;2.75;;;;;;;23.92;47.03;101214.38;5576681;31;34360;-57
2023/09/04 13:27:47;;;;;;;3.60;2.22;;;;;;;23.87;43.36;101197.38;5570205;32;33831;-57
2023/09/04 13:30:52;;;;;;;4.62;2.12;;;;;;;23.70;43.17;101206.72;5569567;32;34299;-57
2023/09/04 13:33:54;;;;;;;3.50;2.40;;;;;;;23.61;42.93;101208.81;5570190;32;33754;-56
2023/09/04 13:36:56;;;;;;;8.07;3.80;;;;;;;23.62;48.67;101205.69;5569935;32;33725;-57
2023/09/04 13:39:59;;;;;;;15.15;2.65;;;;;;;23.66;43.94;101197.59;5570076;32;34495;-57
2023/09/04 13:43:01;;;;;;;5.35;2.00;;;;;;;23.83;44.42;101196.50;5569960;32;33562;-56
2023/09/04 13:46:03;;;;;;;10.38;2.40;;;;;;;23.85;41.80;101180.53;5570025;32;34331;-57
2023/09/04 13:49:06;;;;;;;3.05;2.20;;;;;;;23.90;40.77;101189.25;5569830;32;33649;-57
2023/09/04 13:52:12;;;;;;;9.73;2.55;;;;;;;23.76;43.48;101177.16;5570016;32;33789;-58
2023/09/04 13:55:15;;;;;;;3.67;2.33;;;;;;;23.79;46.11;101184.66;5569814;32;33716;-58
2023/09/04 13:58:17;;;;;;;2.45;2.03;;;;;;;23.71;45.80;101183.69;5569740;32;33727;-57
2023/09/04 14:01:20;;;;;;;8.43;2.22;;;;;;;23.82;44.38;101187.50;5569745;32;33594;-58
2023/09/04 14:04:22;;;;;;;3.12;2.25;;;;;;;23.87;43.88;101176.31;5568475;32;34375;-57
2023/09/04 14:07:24;;;;;;;5.28;2.05;;;;;;;23.94;41.81;101181.19;5569808;32;33756;-57
2023/09/04 14:10:27;;;;;;;12.13;2.50;;;;;;;24.04;46.28;101177.09;5569708;32;33585;-57
2023/09/04 14:13:30;;;;;;;4.50;2.17;;;;;;;24.03;41.53;101173.56;5568936;32;33932;-57
2023/09/04 14:16:32;;;;;;;6.78;2.20;;;;;;;23.99;43.70;101177.38;5569644;32;34344;-57
2023/09/04 14:19:35;;;;;;;5.75;2.35;;;;;;;23.98;43.14;101182.06;5569651;32;33636;-57
2023/09/04 14:22:37;;;;;;;7.95;2.50;;;;;;;24.03;49.40;101181.78;5569673;32;33646;-58
2023/09/04 14:25:39;;;;;;;4.60;2.10;;;;;;;24.00;40.77;101176.22;5569531;32;33784;-57
2023/09/04 14:28:42;;;;;;;4.65;2.35;;;;;;;23.90;39.45;101172.03;5569615;32;34033;-57
2023/09/04 14:31:44;;;;;;;6.62;2.40;;;;;;;23.90;40.25;101180.25;5569519;32;34405;-58
2023/09/04 14:34:46;;;;;;;4.28;2.40;;;;;;;23.96;41.44;101176.13;5569519;32;34144;-57
2023/09/04 14:37:50;;;;;;;5.35;2.47;;;;;;;23.97;40.72;101177.69;5569127;32;34373;-57
2023/09/04 14:40:54;;;;;;;8.55;2.30;;;;;;;23.90;42.78;101177.53;5569379;32;33161;-57
2023/09/04 14:43:56;;;;;;;3.62;2.40;;;;;;;23.85;45.70;101184.06;5568681;32;34389;-57
2023/09/04 14:46:59;;;;;;;8.18;2.55;;;;;;;23.80;41.35;101184.31;5569354;32;33558;-58
2023/09/04 14:50:01;;;;;;;4.60;2.35;;;;;;;23.76;42.58;101180.69;5568998;32;33614;-57
2023/09/04 14:53:04;;;;;;;4.43;2.62;;;;;;;23.87;41.45;101179.03;5569259;32;33295;-56
2023/09/04 14:56:07;;;;;;;4.15;2.58;;;;;;;23.86;40.00;101176.63;5569306;32;33742;-58
2023/09/04 14:59:09;;;;;;;3.37;2.03;;;;;;;23.94;42.27;101175.69;5568924;32;34461;-56
2023/09/04 15:02:11;;;;;;;5.10;2.67;;;;;;;23.87;41.30;101178.22;5569140;32;33725;-57
2023/09/04 15:05:14;;;;;;;3.45;2.35;;;;;;;23.79;39.08;101182.72;5569484;32;33614;-57
2023/09/04 15:08:16;;;;;;;3.22;2.05;;;;;;;23.84;43.07;101179.75;5569322;32;33665;-57
2023/09/04 15:11:18;;;;;;;4.00;2.28;;;;;;;23.84;43.44;101185.22;5569318;32;33436;-56
2023/09/04 15:14:21;;;;;;;2.45;2.00;;;;;;;23.84;41.02;101184.41;5569274;32;33674;-57
2023/09/04 15:17:23;;;;;;;3.40;2.50;;;;;;;23.83;40.34;101189.09;5569309;32;33742;-57
2023/09/04 15:20:26;;;;;;;3.58;2.40;;;;;;;23.86;44.46;101195.81;5569215;32;33834;-57
